sensor_id;sensor_type;location;lat;lon;timestamp;P1;durP1;ratioP1;P2;durP2;ratioP2
30380;SDS011;17169;50.966;11.038;2023-02-20T00:01:44;10.55;;;6.55;;
30380;SDS011;17169;50.966;11.038;2023-02-20T00:04:47;10.18;;;6.05;;
30380;SDS011;17169;50.966;11.038;2023-02-20T00:07:49;10.38;;;6.07;;
30380;SDS011;17169;50.966;11.038;2023-02-20T00:10:52;9.88;;;5.88;;
30380;SDS011;17169;50.966;11.038;2023-02-20T00:13:54;10.02;;;5.53;;
30380;SDS011;17169;50.966;11.038;2023-02-20T00:16:58;9.52;;;5.88;;
30380;SDS011;17169;50.966;11.038;2023-02-20T00:20:00;10.30;;;5.85;;
30380;SDS011;17169;50.966;11.038;2023-02-20T00:23:04;9.57;;;5.82;;
30380;SDS011;17169;50.966;11.038;2023-02-20T00:26:07;9.57;;;5.57;;
30380;SDS011;17169;50.966;11.038;2023-02-20T00:29:12;9.50;;;5.72;;
30380;SDS011;17169;50.966;11.038;2023-02-20T00:32:17;7.80;;;4.90;;
30380;SDS011;17169;50.966;11.038;2023-02-20T00:35:19;11.77;;;6.20;;
30380;SDS011;17169;50.966;11.038;2023-02-20T00:38:22;8.63;;;5.28;;
30380;SDS011;17169;50.966;11.038;2023-02-20T00:41:25;8.77;;;5.55;;
30380;SDS011;17169;50.966;11.038;2023-02-20T00:44:27;8.80;;;5.78;;
30380;SDS011;17169;50.966;11.038;2023-02-20T00:47:31;11.25;;;5.93;;
30380;SDS011;17169;50.966;11.038;2023-02-20T00:50:33;8.75;;;5.55;;
30380;SDS011;17169;50.966;11.038;2023-02-20T00:53:36;8.13;;;4.93;;
30380;SDS011;17169;50.966;11.038;2023-02-20T00:56:38;8.65;;;5.45;;
30380;SDS011;17169;50.966;11.038;2023-02-20T00:59:41;6.88;;;4.50;;
30380;SDS011;17169;50.966;11.038;2023-02-20T01:02:44;8.18;;;4.97;;
30380;SDS011;17169;50.966;11.038;2023-02-20T01:05:47;10.70;;;5.07;;
30380;SDS011;17169;50.966;11.038;2023-02-20T01:08:49;7.43;;;4.47;;
30380;SDS011;17169;50.966;11.038;2023-02-20T01:11:52;16.92;;;5.55;;
30380;SDS011;17169;50.966;11.038;2023-02-20T01:14:54;12.02;;;5.22;;
30380;SDS011;17169;50.966;11.038;2023-02-20T01:17:58;9.70;;;5.20;;
30380;SDS011;17169;50.966;11.038;2023-02-20T01:21:00;7.80;;;5.03;;
30380;SDS011;17169;50.966;11.038;2023-02-20T01:24:03;9.38;;;5.18;;
30380;SDS011;17169;50.966;11.038;2023-02-20T01:27:05;8.35;;;5.18;;
30380;SDS011;17169;50.966;11.038;2023-02-20T01:30:08;8.68;;;5.05;;
30380;SDS011;17169;50.966;11.038;2023-02-20T01:33:12;9.43;;;5.25;;
30380;SDS011;17169;50.966;11.038;2023-02-20T01:36:15;8.07;;;5.07;;
30380;SDS011;17169;50.966;11.038;2023-02-20T01:39:17;9.38;;;5.28;;
30380;SDS011;17169;50.966;11.038;2023-02-20T01:42:21;8.48;;;4.88;;
30380;SDS011;17169;50.966;11.038;2023-02-20T01:45:33;10.75;;;4.93;;
30380;SDS011;17169;50.966;11.038;2023-02-20T01:48:38;6.90;;;4.57;;
30380;SDS011;17169;50.966;11.038;2023-02-20T01:51:42;8.40;;;4.35;;
30380;SDS011;17169;50.966;11.038;2023-02-20T01:54:47;9.55;;;5.25;;
30380;SDS011;17169;50.966;11.038;2023-02-20T01:57:54;8.95;;;4.90;;
30380;SDS011;17169;50.966;11.038;2023-02-20T02:00:59;8.45;;;4.50;;
30380;SDS011;17169;50.966;11.038;2023-02-20T02:04:05;9.18;;;5.00;;
30380;SDS011;17169;50.966;11.038;2023-02-20T02:07:10;7.85;;;4.80;;
30380;SDS011;17169;50.966;11.038;2023-02-20T02:10:13;8.38;;;4.95;;
30380;SDS011;17169;50.966;11.038;2023-02-20T02:13:19;8.27;;;4.78;;
30380;SDS011;17169;50.966;11.038;2023-02-20T02:16:22;13.15;;;4.43;;
30380;SDS011;17169;50.966;11.038;2023-02-20T02:19:57;7.50;;;4.47;;
30380;SDS011;17169;50.966;11.038;2023-02-20T02:23:35;7.75;;;4.78;;
30380;SDS011;17169;50.966;11.038;2023-02-20T02:27:36;15.38;;;5.05;;
30380;SDS011;17169;50.966;11.038;2023-02-20T02:31:11;8.43;;;5.03;;
30380;SDS011;17169;50.966;11.038;2023-02-20T02:38:18;9.10;;;4.97;;
30380;SDS011;17169;50.966;11.038;2023-02-20T02:41:29;8.73;;;4.95;;
30380;SDS011;17169;50.966;11.038;2023-02-20T02:44:40;7.30;;;4.85;;
30380;SDS011;17169;50.966;11.038;2023-02-20T02:47:47;8.30;;;5.00;;
30380;SDS011;17169;50.966;11.038;2023-02-20T02:50:55;7.22;;;4.35;;
30380;SDS011;17169;50.966;11.038;2023-02-20T02:54:07;9.98;;;5.30;;
30380;SDS011;17169;50.966;11.038;2023-02-20T02:57:15;9.35;;;5.50;;
30380;SDS011;17169;50.966;11.038;2023-02-20T03:00:21;8.15;;;5.03;;
30380;SDS011;17169;50.966;11.038;2023-02-20T03:03:27;9.00;;;5.35;;
30380;SDS011;17169;50.966;11.038;2023-02-20T03:06:34;8.80;;;4.78;;
30380;SDS011;17169;50.966;11.038;2023-02-20T03:12:46;7.90;;;4.78;;
30380;SDS011;17169;50.966;11.038;2023-02-20T03:15:50;9.02;;;5.28;;
30380;SDS011;17169;50.966;11.038;2023-02-20T03:18:54;7.85;;;4.57;;
30380;SDS011;17169;50.966;11.038;2023-02-20T03:22:03;8.65;;;5.53;;
30380;SDS011;17169;50.966;11.038;2023-02-20T03:25:13;8.20;;;5.07;;
30380;SDS011;17169;50.966;11.038;2023-02-20T03:28:19;7.53;;;4.88;;
30380;SDS011;17169;50.966;11.038;2023-02-20T03:31:26;11.50;;;4.57;;
30380;SDS011;17169;50.966;11.038;2023-02-20T03:34:32;10.40;;;5.15;;
30380;SDS011;17169;50.966;11.038;2023-02-20T03:37:52;8.13;;;4.80;;
30380;SDS011;17169;50.966;11.038;2023-02-20T03:41:15;8.82;;;4.90;;
30380;SDS011;17169;50.966;11.038;2023-02-20T03:44:36;8.45;;;5.30;;
30380;SDS011;17169;50.966;11.038;2023-02-20T03:47:40;10.05;;;5.30;;
30380;SDS011;17169;50.966;11.038;2023-02-20T03:50:45;8.77;;;5.20;;
30380;SDS011;17169;50.966;11.038;2023-02-20T03:53:48;8.98;;;5.00;;
30380;SDS011;17169;50.966;11.038;2023-02-20T03:56:53;6.53;;;4.07;;
30380;SDS011;17169;50.966;11.038;2023-02-20T04:00:01;6.97;;;4.28;;
30380;SDS011;17169;50.966;11.038;2023-02-20T04:03:07;7.47;;;4.68;;
30380;SDS011;17169;50.966;11.038;2023-02-20T04:06:15;7.25;;;4.70;;
30380;SDS011;17169;50.966;11.038;2023-02-20T04:09:20;8.63;;;4.72;;
30380;SDS011;17169;50.966;11.038;2023-02-20T04:12:29;7.45;;;4.50;;
30380;SDS011;17169;50.966;11.038;2023-02-20T04:15:36;6.82;;;4.63;;
30380;SDS011;17169;50.966;11.038;2023-02-20T04:18:39;7.40;;;4.78;;
30380;SDS011;17169;50.966;11.038;2023-02-20T04:21:42;7.00;;;4.63;;
30380;SDS011;17169;50.966;11.038;2023-02-20T04:24:50;7.80;;;4.82;;
30380;SDS011;17169;50.966;11.038;2023-02-20T04:27:57;7.25;;;4.82;;
30380;SDS011;17169;50.966;11.038;2023-02-20T04:31:00;7.10;;;4.65;;
30380;SDS011;17169;50.966;11.038;2023-02-20T04:34:03;8.07;;;5.07;;
30380;SDS011;17169;50.966;11.038;2023-02-20T04:37:06;7.88;;;4.35;;
30380;SDS011;17169;50.966;11.038;2023-02-20T04:40:11;7.00;;;4.78;;
30380;SDS011;17169;50.966;11.038;2023-02-20T04:43:16;7.60;;;4.50;;
30380;SDS011;17169;50.966;11.038;2023-02-20T04:46:18;7.50;;;5.00;;
30380;SDS011;17169;50.966;11.038;2023-02-20T04:52:26;8.10;;;4.38;;
30380;SDS011;17169;50.966;11.038;2023-02-20T04:55:28;9.07;;;5.20;;
30380;SDS011;17169;50.966;11.038;2023-02-20T04:58:32;8.63;;;4.88;;
30380;SDS011;17169;50.966;11.038;2023-02-20T05:01:36;9.07;;;4.90;;
30380;SDS011;17169;50.966;11.038;2023-02-20T05:04:39;10.05;;;5.93;;
30380;SDS011;17169;50.966;11.038;2023-02-20T05:07:42;8.40;;;5.78;;
30380;SDS011;17169;50.966;11.038;2023-02-20T05:10:45;11.50;;;6.57;;
30380;SDS011;17169;50.966;11.038;2023-02-20T05:13:49;8.77;;;6.25;;
30380;SDS011;17169;50.966;11.038;2023-02-20T05:16:51;10.48;;;6.35;;
30380;SDS011;17169;50.966;11.038;2023-02-20T05:19:53;11.10;;;7.10;;
30380;SDS011;17169;50.966;11.038;2023-02-20T05:22:56;15.23;;;6.75;;
30380;SDS011;17169;50.966;11.038;2023-02-20T05:25:57;9.07;;;5.85;;
30380;SDS011;17169;50.966;11.038;2023-02-20T05:29:01;10.27;;;6.85;;
30380;SDS011;17169;50.966;11.038;2023-02-20T05:32:03;12.73;;;7.55;;
30380;SDS011;17169;50.966;11.038;2023-02-20T05:35:06;15.88;;;7.95;;
30380;SDS011;17169;50.966;11.038;2023-02-20T05:38:08;12.77;;;8.20;;
30380;SDS011;17169;50.966;11.038;2023-02-20T05:41:17;12.48;;;7.88;;
30380;SDS011;17169;50.966;11.038;2023-02-20T05:44:21;12.23;;;7.97;;
30380;SDS011;17169;50.966;11.038;2023-02-20T05:47:23;15.85;;;8.32;;
30380;SDS011;17169;50.966;11.038;2023-02-20T05:50:26;13.73;;;7.47;;
30380;SDS011;17169;50.966;11.038;2023-02-20T05:53:28;11.20;;;7.43;;
30380;SDS011;17169;50.966;11.038;2023-02-20T05:56:31;13.00;;;8.43;;
30380;SDS011;17169;50.966;11.038;2023-02-20T05:59:36;14.02;;;8.25;;
30380;SDS011;17169;50.966;11.038;2023-02-20T06:02:39;11.20;;;7.00;;
30380;SDS011;17169;50.966;11.038;2023-02-20T06:05:41;17.85;;;7.90;;
30380;SDS011;17169;50.966;11.038;2023-02-20T06:08:44;11.73;;;7.35;;
30380;SDS011;17169;50.966;11.038;2023-02-20T06:11:48;10.88;;;7.07;;
30380;SDS011;17169;50.966;11.038;2023-02-20T06:14:52;10.80;;;6.65;;
30380;SDS011;17169;50.966;11.038;2023-02-20T06:17:54;10.98;;;6.97;;
30380;SDS011;17169;50.966;11.038;2023-02-20T06:20:57;10.82;;;6.97;;
30380;SDS011;17169;50.966;11.038;2023-02-20T06:24:00;11.82;;;6.20;;
30380;SDS011;17169;50.966;11.038;2023-02-20T06:27:03;12.05;;;6.85;;
30380;SDS011;17169;50.966;11.038;2023-02-20T06:30:10;10.00;;;6.88;;
30380;SDS011;17169;50.966;11.038;2023-02-20T06:33:13;10.18;;;5.85;;
30380;SDS011;17169;50.966;11.038;2023-02-20T06:36:19;9.93;;;6.07;;
30380;SDS011;17169;50.966;11.038;2023-02-20T06:39:23;8.85;;;5.60;;
30380;SDS011;17169;50.966;11.038;2023-02-20T06:42:26;8.68;;;5.25;;
30380;SDS011;17169;50.966;11.038;2023-02-20T06:45:29;9.02;;;5.45;;
30380;SDS011;17169;50.966;11.038;2023-02-20T06:48:32;7.60;;;5.18;;
30380;SDS011;17169;50.966;11.038;2023-02-20T06:51:34;8.82;;;5.43;;
30380;SDS011;17169;50.966;11.038;2023-02-20T06:54:37;11.38;;;5.47;;
30380;SDS011;17169;50.966;11.038;2023-02-20T06:57:39;8.23;;;5.07;;
30380;SDS011;17169;50.966;11.038;2023-02-20T07:00:43;9.57;;;4.93;;
30380;SDS011;17169;50.966;11.038;2023-02-20T07:03:46;10.02;;;4.53;;
30380;SDS011;17169;50.966;11.038;2023-02-20T07:06:49;7.30;;;4.47;;
30380;SDS011;17169;50.966;11.038;2023-02-20T07:09:51;8.52;;;4.82;;
30380;SDS011;17169;50.966;11.038;2023-02-20T07:12:54;8.10;;;4.30;;
30380;SDS011;17169;50.966;11.038;2023-02-20T07:15:58;7.55;;;3.85;;
30380;SDS011;17169;50.966;11.038;2023-02-20T07:19:00;7.07;;;4.22;;
30380;SDS011;17169;50.966;11.038;2023-02-20T07:22:02;6.43;;;4.25;;
30380;SDS011;17169;50.966;11.038;2023-02-20T07:25:05;6.53;;;3.83;;
30380;SDS011;17169;50.966;11.038;2023-02-20T07:28:08;7.38;;;4.22;;
30380;SDS011;17169;50.966;11.038;2023-02-20T07:31:11;6.75;;;4.40;;
30380;SDS011;17169;50.966;11.038;2023-02-20T07:34:14;11.13;;;3.83;;
30380;SDS011;17169;50.966;11.038;2023-02-20T07:37:16;6.82;;;3.80;;
30380;SDS011;17169;50.966;11.038;2023-02-20T07:40:18;7.53;;;3.90;;
30380;SDS011;17169;50.966;11.038;2023-02-20T07:43:21;5.47;;;3.50;;
30380;SDS011;17169;50.966;11.038;2023-02-20T07:46:25;8.85;;;3.55;;
30380;SDS011;17169;50.966;11.038;2023-02-20T07:49:28;7.45;;;4.20;;
30380;SDS011;17169;50.966;11.038;2023-02-20T07:52:30;8.15;;;4.20;;
30380;SDS011;17169;50.966;11.038;2023-02-20T07:55:32;5.40;;;3.50;;
30380;SDS011;17169;50.966;11.038;2023-02-20T07:58:35;6.63;;;3.58;;
30380;SDS011;17169;50.966;11.038;2023-02-20T08:01:38;6.57;;;3.25;;
30380;SDS011;17169;50.966;11.038;2023-02-20T08:04:41;5.90;;;3.63;;
30380;SDS011;17169;50.966;11.038;2023-02-20T08:07:43;6.15;;;3.13;;
30380;SDS011;17169;50.966;11.038;2023-02-20T08:10:46;6.65;;;3.05;;
30380;SDS011;17169;50.966;11.038;2023-02-20T08:13:49;8.30;;;2.80;;
30380;SDS011;17169;50.966;11.038;2023-02-20T08:16:56;5.88;;;2.70;;
30380;SDS011;17169;50.966;11.038;2023-02-20T08:19:58;5.68;;;3.40;;
30380;SDS011;17169;50.966;11.038;2023-02-20T08:23:01;4.15;;;2.58;;
30380;SDS011;17169;50.966;11.038;2023-02-20T08:26:05;5.50;;;2.47;;
30380;SDS011;17169;50.966;11.038;2023-02-20T08:29:07;4.82;;;2.70;;
30380;SDS011;17169;50.966;11.038;2023-02-20T08:32:11;7.00;;;3.22;;
30380;SDS011;17169;50.966;11.038;2023-02-20T08:35:13;6.10;;;2.85;;
30380;SDS011;17169;50.966;11.038;2023-02-20T08:38:23;4.80;;;2.95;;
30380;SDS011;17169;50.966;11.038;2023-02-20T08:41:28;6.70;;;2.90;;
30380;SDS011;17169;50.966;11.038;2023-02-20T08:44:30;6.05;;;2.67;;
30380;SDS011;17169;50.966;11.038;2023-02-20T08:47:34;4.43;;;2.55;;
30380;SDS011;17169;50.966;11.038;2023-02-20T08:50:37;6.03;;;2.97;;
30380;SDS011;17169;50.966;11.038;2023-02-20T08:53:39;6.68;;;2.80;;
30380;SDS011;17169;50.966;11.038;2023-02-20T08:56:42;6.97;;;3.10;;
30380;SDS011;17169;50.966;11.038;2023-02-20T08:59:44;6.18;;;2.80;;
30380;SDS011;17169;50.966;11.038;2023-02-20T09:02:48;5.32;;;2.50;;
30380;SDS011;17169;50.966;11.038;2023-02-20T09:05:50;5.15;;;2.50;;
30380;SDS011;17169;50.966;11.038;2023-02-20T09:08:53;5.35;;;2.85;;
30380;SDS011;17169;50.966;11.038;2023-02-20T09:11:56;5.55;;;2.50;;
30380;SDS011;17169;50.966;11.038;2023-02-20T09:14:58;3.53;;;2.15;;
30380;SDS011;17169;50.966;11.038;2023-02-20T09:18:02;5.75;;;2.60;;
30380;SDS011;17169;50.966;11.038;2023-02-20T09:21:07;3.92;;;2.33;;
30380;SDS011;17169;50.966;11.038;2023-02-20T09:24:10;7.20;;;2.10;;
30380;SDS011;17169;50.966;11.038;2023-02-20T09:27:12;4.13;;;2.13;;
30380;SDS011;17169;50.966;11.038;2023-02-20T09:30:15;7.57;;;2.55;;
30380;SDS011;17169;50.966;11.038;2023-02-20T09:33:20;5.40;;;2.50;;
30380;SDS011;17169;50.966;11.038;2023-02-20T09:36:22;4.60;;;2.10;;
30380;SDS011;17169;50.966;11.038;2023-02-20T09:39:25;5.65;;;2.20;;
30380;SDS011;17169;50.966;11.038;2023-02-20T09:42:30;4.70;;;2.03;;
30380;SDS011;17169;50.966;11.038;2023-02-20T09:45:36;3.85;;;2.10;;
30380;SDS011;17169;50.966;11.038;2023-02-20T09:48:52;7.18;;;2.40;;
30380;SDS011;17169;50.966;11.038;2023-02-20T09:52:02;6.50;;;2.25;;
30380;SDS011;17169;50.966;11.038;2023-02-20T09:55:09;5.28;;;2.20;;
30380;SDS011;17169;50.966;11.038;2023-02-20T09:58:19;3.80;;;2.13;;
30380;SDS011;17169;50.966;11.038;2023-02-20T10:01:26;4.57;;;1.92;;
30380;SDS011;17169;50.966;11.038;2023-02-20T10:04:33;4.03;;;2.28;;
30380;SDS011;17169;50.966;11.038;2023-02-20T10:07:39;5.47;;;2.10;;
30380;SDS011;17169;50.966;11.038;2023-02-20T10:10:41;9.82;;;2.30;;
30380;SDS011;17169;50.966;11.038;2023-02-20T10:13:48;5.13;;;2.72;;
30380;SDS011;17169;50.966;11.038;2023-02-20T10:16:59;3.92;;;2.22;;
30380;SDS011;17169;50.966;11.038;2023-02-20T10:20:10;6.15;;;2.22;;
30380;SDS011;17169;50.966;11.038;2023-02-20T10:23:17;5.80;;;2.30;;
30380;SDS011;17169;50.966;11.038;2023-02-20T10:26:29;4.93;;;2.10;;
30380;SDS011;17169;50.966;11.038;2023-02-20T10:29:35;7.05;;;1.92;;
30380;SDS011;17169;50.966;11.038;2023-02-20T10:32:40;3.45;;;1.95;;
30380;SDS011;17169;50.966;11.038;2023-02-20T10:35:50;6.05;;;2.10;;
30380;SDS011;17169;50.966;11.038;2023-02-20T10:38:59;5.68;;;2.10;;
30380;SDS011;17169;50.966;11.038;2023-02-20T10:42:07;5.68;;;1.90;;
30380;SDS011;17169;50.966;11.038;2023-02-20T10:45:16;6.85;;;2.10;;
30380;SDS011;17169;50.966;11.038;2023-02-20T10:48:28;5.70;;;1.85;;
30380;SDS011;17169;50.966;11.038;2023-02-20T10:51:35;8.63;;;2.00;;
30380;SDS011;17169;50.966;11.038;2023-02-20T10:54:44;9.35;;;2.10;;
30380;SDS011;17169;50.966;11.038;2023-02-20T10:57:54;5.38;;;1.60;;
30380;SDS011;17169;50.966;11.038;2023-02-20T11:01:01;4.72;;;2.30;;
30380;SDS011;17169;50.966;11.038;2023-02-20T11:04:08;5.75;;;1.60;;
30380;SDS011;17169;50.966;11.038;2023-02-20T11:07:16;3.42;;;1.38;;
30380;SDS011;17169;50.966;11.038;2023-02-20T11:10:21;2.50;;;1.50;;
30380;SDS011;17169;50.966;11.038;2023-02-20T11:13:24;3.05;;;1.20;;
30380;SDS011;17169;50.966;11.038;2023-02-20T11:16:28;5.50;;;1.58;;
30380;SDS011;17169;50.966;11.038;2023-02-20T11:19:35;7.20;;;1.83;;
30380;SDS011;17169;50.966;11.038;2023-02-20T11:22:44;4.72;;;1.60;;
30380;SDS011;17169;50.966;11.038;2023-02-20T11:25:48;3.03;;;1.23;;
30380;SDS011;17169;50.966;11.038;2023-02-20T11:28:55;6.00;;;1.35;;
30380;SDS011;17169;50.966;11.038;2023-02-20T11:38:43;3.17;;;1.05;;
30380;SDS011;17169;50.966;11.038;2023-02-20T11:41:47;3.83;;;1.42;;
30380;SDS011;17169;50.966;11.038;2023-02-20T11:45:04;3.10;;;1.08;;
30380;SDS011;17169;50.966;11.038;2023-02-20T11:48:14;2.30;;;1.10;;
30380;SDS011;17169;50.966;11.038;2023-02-20T11:51:29;3.65;;;1.33;;
30380;SDS011;17169;50.966;11.038;2023-02-20T11:54:34;4.87;;;2.47;;
30380;SDS011;17169;50.966;11.038;2023-02-20T11:57:37;3.03;;;1.25;;
30380;SDS011;17169;50.966;11.038;2023-02-20T12:00:44;2.38;;;1.02;;
30380;SDS011;17169;50.966;11.038;2023-02-20T12:03:53;2.22;;;1.00;;
30380;SDS011;17169;50.966;11.038;2023-02-20T12:06:56;2.35;;;0.90;;
30380;SDS011;17169;50.966;11.038;2023-02-20T12:10:00;4.35;;;1.17;;
30380;SDS011;17169;50.966;11.038;2023-02-20T12:13:10;6.32;;;1.02;;
30380;SDS011;17169;50.966;11.038;2023-02-20T12:16:21;1.88;;;0.93;;
30380;SDS011;17169;50.966;11.038;2023-02-20T12:19:36;5.18;;;1.10;;
30380;SDS011;17169;50.966;11.038;2023-02-20T12:22:48;4.85;;;1.33;;
30380;SDS011;17169;50.966;11.038;2023-02-20T12:26:05;2.55;;;0.88;;
30380;SDS011;17169;50.966;11.038;2023-02-20T12:29:18;4.32;;;1.10;;
30380;SDS011;17169;50.966;11.038;2023-02-20T12:32:38;1.52;;;0.80;;
30380;SDS011;17169;50.966;11.038;2023-02-20T12:35:54;2.00;;;1.10;;
30380;SDS011;17169;50.966;11.038;2023-02-20T12:39:11;3.50;;;1.10;;
30380;SDS011;17169;50.966;11.038;2023-02-20T12:45:29;3.72;;;1.30;;
30380;SDS011;17169;50.966;11.038;2023-02-20T12:48:41;7.72;;;1.20;;
30380;SDS011;17169;50.966;11.038;2023-02-20T12:51:51;2.58;;;1.10;;
30380;SDS011;17169;50.966;11.038;2023-02-20T12:54:58;4.10;;;1.38;;
30380;SDS011;17169;50.966;11.038;2023-02-20T12:58:09;6.47;;;1.23;;
30380;SDS011;17169;50.966;11.038;2023-02-20T13:01:29;3.28;;;1.17;;
30380;SDS011;17169;50.966;11.038;2023-02-20T13:04:35;2.75;;;0.98;;
30380;SDS011;17169;50.966;11.038;2023-02-20T13:07:43;5.43;;;1.30;;
30380;SDS011;17169;50.966;11.038;2023-02-20T13:10:52;2.83;;;1.25;;
30380;SDS011;17169;50.966;11.038;2023-02-20T13:14:00;10.05;;;1.50;;
30380;SDS011;17169;50.966;11.038;2023-02-20T13:17:12;4.72;;;1.63;;
30380;SDS011;17169;50.966;11.038;2023-02-20T13:20:25;5.93;;;1.33;;
30380;SDS011;17169;50.966;11.038;2023-02-20T13:23:33;2.45;;;1.38;;
30380;SDS011;17169;50.966;11.038;2023-02-20T13:26:46;2.83;;;1.30;;
30380;SDS011;17169;50.966;11.038;2023-02-20T13:29:56;3.53;;;1.40;;
30380;SDS011;17169;50.966;11.038;2023-02-20T13:33:15;4.80;;;1.58;;
30380;SDS011;17169;50.966;11.038;2023-02-20T13:36:38;3.85;;;1.30;;
30380;SDS011;17169;50.966;11.038;2023-02-20T13:39:42;2.67;;;1.08;;
30380;SDS011;17169;50.966;11.038;2023-02-20T13:42:44;4.57;;;1.55;;
30380;SDS011;17169;50.966;11.038;2023-02-20T13:45:48;2.60;;;1.42;;
30380;SDS011;17169;50.966;11.038;2023-02-20T13:49:12;4.18;;;1.45;;
30380;SDS011;17169;50.966;11.038;2023-02-20T13:52:54;3.22;;;1.27;;
30380;SDS011;17169;50.966;11.038;2023-02-20T13:55:57;6.10;;;1.70;;
30380;SDS011;17169;50.966;11.038;2023-02-20T13:59:00;2.63;;;1.30;;
30380;SDS011;17169;50.966;11.038;2023-02-20T14:02:11;4.13;;;1.45;;
30380;SDS011;17169;50.966;11.038;2023-02-20T14:05:21;4.45;;;1.40;;
30380;SDS011;17169;50.966;11.038;2023-02-20T14:08:25;4.55;;;1.75;;
30380;SDS011;17169;50.966;11.038;2023-02-20T14:11:29;4.80;;;1.70;;
30380;SDS011;17169;50.966;11.038;2023-02-20T14:14:35;5.40;;;1.80;;
30380;SDS011;17169;50.966;11.038;2023-02-20T14:17:42;6.22;;;2.22;;
30380;SDS011;17169;50.966;11.038;2023-02-20T14:20:45;6.32;;;2.60;;
30380;SDS011;17169;50.966;11.038;2023-02-20T14:23:49;5.85;;;1.92;;
30380;SDS011;17169;50.966;11.038;2023-02-20T14:26:52;5.20;;;1.83;;
30380;SDS011;17169;50.966;11.038;2023-02-20T14:30:02;6.50;;;1.77;;
30380;SDS011;17169;50.966;11.038;2023-02-20T14:33:18;5.18;;;2.03;;
30380;SDS011;17169;50.966;11.038;2023-02-20T14:40:04;6.03;;;2.40;;
30380;SDS011;17169;50.966;11.038;2023-02-20T14:43:13;4.60;;;1.92;;
30380;SDS011;17169;50.966;11.038;2023-02-20T14:46:19;4.13;;;1.60;;
30380;SDS011;17169;50.966;11.038;2023-02-20T14:49:26;6.53;;;2.75;;
30380;SDS011;17169;50.966;11.038;2023-02-20T14:52:30;4.28;;;1.80;;
30380;SDS011;17169;50.966;11.038;2023-02-20T14:55:33;10.88;;;2.25;;
30380;SDS011;17169;50.966;11.038;2023-02-20T14:58:35;5.93;;;1.65;;
30380;SDS011;17169;50.966;11.038;2023-02-20T15:01:38;8.25;;;1.92;;
30380;SDS011;17169;50.966;11.038;2023-02-20T15:04:46;9.07;;;1.77;;
30380;SDS011;17169;50.966;11.038;2023-02-20T15:07:50;5.88;;;1.70;;
30380;SDS011;17169;50.966;11.038;2023-02-20T15:10:52;5.82;;;2.45;;
30380;SDS011;17169;50.966;11.038;2023-02-20T15:13:56;4.95;;;2.30;;
30380;SDS011;17169;50.966;11.038;2023-02-20T15:17:06;3.75;;;1.83;;
30380;SDS011;17169;50.966;11.038;2023-02-20T15:20:32;4.93;;;1.80;;
30380;SDS011;17169;50.966;11.038;2023-02-20T15:23:38;5.65;;;2.22;;
30380;SDS011;17169;50.966;11.038;2023-02-20T15:26:42;3.50;;;1.73;;
30380;SDS011;17169;50.966;11.038;2023-02-20T15:29:45;4.38;;;2.00;;
30380;SDS011;17169;50.966;11.038;2023-02-20T15:32:50;7.22;;;2.22;;
30380;SDS011;17169;50.966;11.038;2023-02-20T15:35:56;5.03;;;2.08;;
30380;SDS011;17169;50.966;11.038;2023-02-20T15:38:59;7.03;;;2.40;;
30380;SDS011;17169;50.966;11.038;2023-02-20T15:42:01;6.50;;;2.45;;
30380;SDS011;17169;50.966;11.038;2023-02-20T15:45:04;3.70;;;2.08;;
30380;SDS011;17169;50.966;11.038;2023-02-20T15:48:06;8.15;;;2.58;;
30380;SDS011;17169;50.966;11.038;2023-02-20T15:51:12;5.30;;;2.33;;
30380;SDS011;17169;50.966;11.038;2023-02-20T15:54:18;6.00;;;2.50;;
30380;SDS011;17169;50.966;11.038;2023-02-20T15:57:20;6.28;;;2.30;;
30380;SDS011;17169;50.966;11.038;2023-02-20T16:00:24;4.30;;;1.63;;
30380;SDS011;17169;50.966;11.038;2023-02-20T16:03:30;5.32;;;2.28;;
30380;SDS011;17169;50.966;11.038;2023-02-20T16:06:35;9.57;;;2.25;;
30380;SDS011;17169;50.966;11.038;2023-02-20T16:09:37;5.47;;;2.00;;
30380;SDS011;17169;50.966;11.038;2023-02-20T16:12:39;4.05;;;1.77;;
30380;SDS011;17169;50.966;11.038;2023-02-20T16:15:42;5.00;;;1.80;;
30380;SDS011;17169;50.966;11.038;2023-02-20T16:18:44;3.25;;;1.50;;
30380;SDS011;17169;50.966;11.038;2023-02-20T16:21:48;4.93;;;1.90;;
30380;SDS011;17169;50.966;11.038;2023-02-20T16:24:51;3.72;;;1.40;;
30380;SDS011;17169;50.966;11.038;2023-02-20T16:27:54;3.72;;;1.60;;
30380;SDS011;17169;50.966;11.038;2023-02-20T16:30:57;4.93;;;1.70;;
30380;SDS011;17169;50.966;11.038;2023-02-20T16:33:59;2.42;;;1.40;;
30380;SDS011;17169;50.966;11.038;2023-02-20T16:37:03;3.83;;;1.52;;
30380;SDS011;17169;50.966;11.038;2023-02-20T16:40:05;2.45;;;1.23;;
30380;SDS011;17169;50.966;11.038;2023-02-20T16:43:09;3.25;;;1.30;;
30380;SDS011;17169;50.966;11.038;2023-02-20T16:46:13;3.55;;;1.50;;
30380;SDS011;17169;50.966;11.038;2023-02-20T16:49:15;2.95;;;1.50;;
30380;SDS011;17169;50.966;11.038;2023-02-20T16:52:21;6.22;;;1.40;;
30380;SDS011;17169;50.966;11.038;2023-02-20T16:55:26;2.80;;;1.60;;
30380;SDS011;17169;50.966;11.038;2023-02-20T16:58:30;5.17;;;1.73;;
30380;SDS011;17169;50.966;11.038;2023-02-20T17:01:32;4.93;;;1.73;;
30380;SDS011;17169;50.966;11.038;2023-02-20T17:04:34;2.58;;;1.42;;
30380;SDS011;17169;50.966;11.038;2023-02-20T17:07:38;6.38;;;2.47;;
30380;SDS011;17169;50.966;11.038;2023-02-20T17:10:41;5.68;;;1.92;;
30380;SDS011;17169;50.966;11.038;2023-02-20T17:13:43;5.88;;;1.50;;
30380;SDS011;17169;50.966;11.038;2023-02-20T17:16:46;4.15;;;1.75;;
30380;SDS011;17169;50.966;11.038;2023-02-20T17:19:50;4.47;;;1.90;;
30380;SDS011;17169;50.966;11.038;2023-02-20T17:22:56;5.75;;;1.83;;
30380;SDS011;17169;50.966;11.038;2023-02-20T17:25:58;3.28;;;1.80;;
30380;SDS011;17169;50.966;11.038;2023-02-20T17:29:01;3.70;;;2.15;;
30380;SDS011;17169;50.966;11.038;2023-02-20T17:32:03;4.93;;;1.70;;
30380;SDS011;17169;50.966;11.038;2023-02-20T17:35:06;3.83;;;2.10;;
30380;SDS011;17169;50.966;11.038;2023-02-20T17:38:10;6.20;;;2.40;;
30380;SDS011;17169;50.966;11.038;2023-02-20T17:41:13;4.38;;;2.17;;
30380;SDS011;17169;50.966;11.038;2023-02-20T17:44:16;5.47;;;2.10;;
30380;SDS011;17169;50.966;11.038;2023-02-20T17:47:20;6.80;;;2.22;;
30380;SDS011;17169;50.966;11.038;2023-02-20T17:50:23;5.63;;;2.13;;
30380;SDS011;17169;50.966;11.038;2023-02-20T17:53:27;4.47;;;2.22;;
30380;SDS011;17169;50.966;11.038;2023-02-20T17:56:30;4.70;;;2.25;;
30380;SDS011;17169;50.966;11.038;2023-02-20T17:59:35;5.88;;;2.28;;
30380;SDS011;17169;50.966;11.038;2023-02-20T18:02:38;4.13;;;2.00;;
30380;SDS011;17169;50.966;11.038;2023-02-20T18:05:40;4.53;;;2.33;;
30380;SDS011;17169;50.966;11.038;2023-02-20T18:08:44;5.18;;;2.45;;
30380;SDS011;17169;50.966;11.038;2023-02-20T18:14:51;4.97;;;2.83;;
30380;SDS011;17169;50.966;11.038;2023-02-20T18:17:54;5.45;;;2.72;;
30380;SDS011;17169;50.966;11.038;2023-02-20T18:20:56;5.63;;;2.60;;
30380;SDS011;17169;50.966;11.038;2023-02-20T18:24:00;6.70;;;3.25;;
30380;SDS011;17169;50.966;11.038;2023-02-20T18:27:04;5.50;;;2.90;;
30380;SDS011;17169;50.966;11.038;2023-02-20T18:30:07;6.10;;;2.85;;
30380;SDS011;17169;50.966;11.038;2023-02-20T18:33:10;7.30;;;2.83;;
30380;SDS011;17169;50.966;11.038;2023-02-20T18:36:13;6.90;;;3.05;;
30380;SDS011;17169;50.966;11.038;2023-02-20T18:39:17;4.68;;;2.70;;
30380;SDS011;17169;50.966;11.038;2023-02-20T18:42:19;8.43;;;3.22;;
30380;SDS011;17169;50.966;11.038;2023-02-20T18:45:21;7.60;;;3.35;;
30380;SDS011;17169;50.966;11.038;2023-02-20T18:48:24;8.00;;;3.22;;